Time;durP1;ratioP1;P1;durP2;ratioP2;P2;SDS_P1;SDS_P2;PMS_P1;PMS_P2;Temp;Humidity;BMP_temperature;BMP_pressure;BME280_temperature;BME280_humidity;BME280_pressure;Samples;Min_cycle;Max_cycle;Signal;HPM_P1;HPM_P2
2021/11/07 00:09:34;;;;;;;79.60;44.20;;;;;;;4.27;60.96;99772.52;236612;1193;138642;-60
2021/11/07 00:14:37;;;;;;;74.50;42.30;;;;;;;4.23;61.13;99762.79;236562;1193;138596;-60
2021/11/07 00:19:45;;;;;;;79.90;41.70;;;;;;;4.19;61.27;99754.28;236635;1193;138795;-59
2021/11/07 00:24:52;;;;;;;81.30;43.80;;;;;;;4.13;61.26;99760.92;236538;1193;138753;-59
2021/11/07 00:56:45;;;;;;;72.60;43.60;;;;;;;4.02;61.25;99722.04;236232;1195;138647;-60
2021/11/07 01:01:54;;;;;;;74.90;41.90;;;;;;;3.92;61.33;99722.80;236435;1195;139075;-59
2021/11/07 01:06:58;;;;;;;84.00;45.20;;;;;;;3.86;61.51;99705.41;236219;1195;138991;-60
2021/11/07 01:12:01;;;;;;;79.80;41.70;;;;;;;3.81;61.76;99690.97;235721;1194;138947;-59
2021/11/07 01:17:04;;;;;;;80.70;43.80;;;;;;;3.75;61.82;99687.92;236406;1195;138774;-58
2021/11/07 01:22:12;;;;;;;77.10;43.70;;;;;;;3.72;61.86;99674.16;236627;1195;138587;-58
2021/11/07 01:27:22;;;;;;;76.50;43.40;;;;;;;3.71;62.13;99668.03;236418;1194;138688;-60
2021/11/07 01:32:26;;;;;;;72.50;40.60;;;;;;;3.69;61.92;99651.40;235898;1195;139715;-58
2021/11/07 01:37:34;;;;;;;78.90;43.90;;;;;;;3.64;62.27;99642.93;236207;1195;138936;-61
2021/11/07 01:42:41;;;;;;;81.00;43.70;;;;;;;3.63;61.96;99632.08;236501;1195;138923;-61
2021/11/07 01:47:49;;;;;;;73.50;42.10;;;;;;;3.63;62.06;99639.09;236219;1194;139548;-60
2021/11/07 01:53:02;;;;;;;76.50;41.50;;;;;;;3.68;62.30;99638.80;236186;1194;139355;-60
2021/11/07 01:58:05;;;;;;;73.70;41.50;;;;;;;3.77;62.20;99642.09;236496;1194;138274;-62
2021/11/07 02:03:10;;;;;;;71.50;39.90;;;;;;;3.78;62.28;99635.03;236512;1193;138747;-60
2021/11/07 02:08:14;;;;;;;75.30;40.90;;;;;;;3.76;62.37;99630.87;236601;1193;140823;-62
2021/11/07 02:13:17;;;;;;;76.00;41.10;;;;;;;3.74;62.35;99619.70;236315;1193;138452;-59
2021/11/07 02:18:21;;;;;;;83.20;42.90;;;;;;;3.72;62.49;99614.13;236475;1194;138584;-59
2021/11/07 02:23:25;;;;;;;78.80;42.70;;;;;;;3.71;62.28;99598.20;236239;1194;138577;-61
2021/11/07 02:28:34;;;;;;;81.40;42.30;;;;;;;3.61;62.10;99588.79;236426;1193;139014;-60
2021/11/07 02:33:38;;;;;;;82.90;43.70;;;;;;;3.52;61.97;99592.34;236388;1193;138716;-59
2021/11/07 02:38:42;;;;;;;82.60;42.80;;;;;;;3.47;62.20;99597.74;236069;1195;140272;-58
2021/11/07 02:43:49;;;;;;;76.70;42.60;;;;;;;3.41;62.25;99591.91;236527;1195;140045;-59
2021/11/07 02:48:57;;;;;;;73.00;40.50;;;;;;;3.36;62.11;99584.67;236417;1194;138727;-59
2021/11/07 02:54:04;;;;;;;79.00;43.70;;;;;;;3.33;62.28;99580.71;236586;1195;138508;-60
2021/11/07 02:59:08;;;;;;;73.40;41.30;;;;;;;3.31;62.35;99575.84;236352;1194;138903;-59
2021/11/07 03:04:11;;;;;;;83.20;42.80;;;;;;;3.29;62.62;99568.88;236427;1195;138771;-59
2021/11/07 03:09:21;;;;;;;72.90;41.40;;;;;;;3.36;62.67;99556.08;236547;1194;139239;-58
2021/11/07 03:14:28;;;;;;;81.40;42.90;;;;;;;3.44;62.64;99542.20;236599;1193;139975;-59
2021/11/07 03:19:34;;;;;;;77.00;42.30;;;;;;;3.50;62.77;99522.05;236503;1194;138775;-57
2021/11/07 03:24:39;;;;;;;73.40;40.80;;;;;;;3.48;62.45;99513.84;236616;1194;138255;-59
2021/11/07 03:29:52;;;;;;;75.00;38.80;;;;;;;3.42;62.35;99524.02;236614;1193;138952;-58
2021/11/07 03:35:05;;;;;;;76.20;40.90;;;;;;;3.37;62.40;99520.10;236665;1193;138636;-59
2021/11/07 03:40:10;;;;;;;78.90;40.70;;;;;;;3.36;62.61;99522.58;236791;1193;138545;-58
2021/11/07 03:45:29;;;;;;;72.00;39.80;;;;;;;3.37;62.63;99521.50;236316;1193;139246;-59
2021/11/07 03:50:34;;;;;;;72.30;39.60;;;;;;;3.36;62.75;99512.59;236457;1193;138677;-59
2021/11/07 03:55:38;;;;;;;74.30;39.00;;;;;;;3.30;62.63;99501.67;236376;1194;138585;-59
2021/11/07 04:00:42;;;;;;;68.40;38.20;;;;;;;3.27;62.65;99493.70;236653;1193;139273;-60
2021/11/07 04:05:45;;;;;;;63.10;36.80;;;;;;;3.27;62.73;99493.35;236547;1193;138665;-59
2021/11/07 04:10:48;;;;;;;69.70;36.30;;;;;;;3.30;62.91;99490.82;236563;1193;138771;-60
2021/11/07 04:15:51;;;;;;;72.00;39.10;;;;;;;3.35;63.26;99491.40;236735;1193;140034;-60
2021/11/07 04:20:54;;;;;;;71.20;38.80;;;;;;;3.47;63.33;99487.06;236552;1193;141805;-58
2021/11/07 04:25:59;;;;;;;69.00;37.60;;;;;;;3.62;63.68;99493.16;236081;1195;138911;-58
2021/11/07 04:31:02;;;;;;;74.90;40.50;;;;;;;3.78;63.73;99482.55;236532;1195;140013;-59
2021/11/07 04:36:05;;;;;;;67.60;39.80;;;;;;;3.91;63.52;99473.94;236419;1193;139262;-60
2021/11/07 04:41:16;;;;;;;74.80;40.40;;;;;;;3.97;63.45;99473.77;236662;1193;141221;-61
2021/11/07 04:46:20;;;;;;;74.30;39.80;;;;;;;4.01;63.40;99467.66;236635;1193;138722;-61
2021/11/07 04:51:23;;;;;;;69.20;38.50;;;;;;;4.04;63.38;99466.55;236347;1193;141090;-59
2021/11/07 04:56:26;;;;;;;69.00;38.90;;;;;;;4.05;63.33;99450.36;236120;1195;140422;-58
2021/11/07 05:01:29;;;;;;;66.50;38.40;;;;;;;4.08;63.44;99438.72;236384;1195;139116;-60
2021/11/07 05:06:33;;;;;;;68.30;37.70;;;;;;;4.10;63.70;99422.66;236169;1195;138264;-59
2021/11/07 05:11:37;;;;;;;67.50;36.90;;;;;;;4.15;63.39;99408.13;236603;1193;138492;-59
2021/11/07 05:16:41;;;;;;;63.10;36.10;;;;;;;4.19;63.76;99399.73;236322;1193;139287;-61
2021/11/07 05:21:44;;;;;;;61.30;36.10;;;;;;;4.22;63.70;99382.60;236599;1193;139485;-60
2021/11/07 05:26:47;;;;;;;67.60;37.10;;;;;;;4.27;63.71;99374.04;236601;1194;139030;-60
2021/11/07 05:31:50;;;;;;;64.50;36.30;;;;;;;4.35;63.75;99362.71;236591;1195;139150;-60
2021/11/07 05:36:54;;;;;;;66.10;36.80;;;;;;;4.45;63.56;99363.98;236542;1193;139243;-59
2021/11/07 05:41:56;;;;;;;66.80;36.60;;;;;;;4.52;63.57;99361.30;236444;1194;138866;-59
2021/11/07 05:47:00;;;;;;;61.40;35.50;;;;;;;4.58;63.69;99354.06;236262;1193;139778;-60
2021/11/07 05:52:04;;;;;;;60.90;34.20;;;;;;;4.66;64.08;99341.16;236740;1193;138413;-61
2021/11/07 05:57:07;;;;;;;58.30;33.30;;;;;;;4.73;63.68;99327.73;236146;1193;138710;-58
2021/11/07 06:02:10;;;;;;;59.50;34.30;;;;;;;4.77;63.94;99324.11;236580;1193;139067;-59
2021/11/07 06:07:17;;;;;;;55.40;31.20;;;;;;;4.77;63.72;99327.97;236289;1193;140900;-61
2021/11/07 06:12:20;;;;;;;53.40;30.70;;;;;;;4.77;63.69;99318.30;236536;1193;139305;-61
2021/11/07 06:17:23;;;;;;;54.30;31.40;;;;;;;4.74;63.70;99308.20;236471;1194;138534;-59
2021/11/07 06:22:26;;;;;;;49.90;29.70;;;;;;;4.75;63.73;99312.21;236664;1193;138646;-59
2021/11/07 06:27:30;;;;;;;51.50;29.60;;;;;;;4.80;63.82;99318.93;236328;1193;138332;-59
2021/11/07 06:32:33;;;;;;;52.40;30.80;;;;;;;4.84;64.07;99327.71;236670;1193;139215;-57
2021/11/07 06:37:37;;;;;;;50.80;30.10;;;;;;;4.94;64.42;99317.18;236581;1193;139281;-59
2021/11/07 06:42:41;;;;;;;71.90;39.80;;;;;;;5.09;64.32;99310.50;236464;1194;139640;-59
2021/11/07 06:47:45;;;;;;;49.90;30.60;;;;;;;5.30;64.57;99325.77;236472;1195;139281;-60
2021/11/07 06:52:49;;;;;;;52.30;30.00;;;;;;;5.54;64.33;99318.55;236005;1194;138636;-60
2021/11/07 06:57:52;;;;;;;53.90;29.10;;;;;;;5.63;64.29;99320.30;236752;1193;138906;-59
2021/11/07 07:02:55;;;;;;;51.50;29.20;;;;;;;5.69;64.08;99314.45;236529;1193;140285;-60
2021/11/07 07:08:07;;;;;;;48.20;28.20;;;;;;;5.79;64.30;99315.67;236262;1193;138663;-62
2021/11/07 07:13:19;;;;;;;221.70;142.70;;;;;;;5.89;64.65;99307.00;236457;1193;139837;-64
2021/11/07 07:34:09;;;;;;;48.90;28.60;;;;;;;6.27;64.11;99262.36;236173;1193;139732;-62
2021/11/07 07:39:12;;;;;;;53.20;29.30;;;;;;;6.29;63.93;99252.09;235669;1193;138660;-59
2021/11/07 07:44:16;;;;;;;41.00;22.90;;;;;;;6.35;63.81;99247.77;236307;1193;139399;-60
2021/11/07 07:49:19;;;;;;;65.80;36.20;;;;;;;6.48;64.23;99231.73;236493;1193;139215;-61
2021/11/07 07:54:23;;;;;;;42.00;23.80;;;;;;;6.92;64.63;99226.50;236596;1193;138603;-59
2021/11/07 07:59:26;;;;;;;62.40;37.50;;;;;;;6.97;63.42;99234.01;236193;1193;139137;-59
2021/11/07 08:04:29;;;;;;;32.20;19.20;;;;;;;7.04;63.45;99221.38;236208;1194;139336;-60
2021/11/07 08:09:32;;;;;;;29.90;16.30;;;;;;;7.10;63.06;99205.93;236361;1193;140300;-60
2021/11/07 08:14:36;;;;;;;27.10;14.50;;;;;;;7.18;62.91;99205.38;236163;1193;138429;-60
2021/11/07 08:19:40;;;;;;;22.70;14.80;;;;;;;7.26;62.54;99198.66;236528;1193;139506;-62
2021/11/07 08:24:43;;;;;;;24.00;14.50;;;;;;;7.35;62.28;99195.41;236119;1194;139280;-61
2021/11/07 08:29:52;;;;;;;24.60;15.10;;;;;;;7.43;62.23;99195.42;236556;1193;139147;-63
2021/11/07 08:34:55;;;;;;;25.30;14.70;;;;;;;7.54;62.22;99186.25;236342;1193;138612;-56
2021/11/07 08:40:00;;;;;;;27.60;15.90;;;;;;;7.59;61.72;99185.09;236760;1193;138463;-61
2021/11/07 09:01:21;;;;;;;25.50;15.20;;;;;;;8.10;61.61;99146.57;236553;1193;138431;-61
2021/11/07 09:06:37;;;;;;;26.90;16.30;;;;;;;8.20;61.15;99132.45;236560;1193;138480;-61
2021/11/07 09:11:52;;;;;;;27.90;15.50;;;;;;;9.12;64.83;99112.70;236182;1187;138072;-61
2021/11/07 09:16:56;;;;;;;25.70;14.60;;;;;;;10.90;64.49;99092.10;236605;1193;139536;-58
2021/11/07 09:22:07;;;;;;;80.70;49.30;;;;;;;11.98;62.75;99091.84;236642;1193;138947;-58
2021/11/07 09:27:32;;;;;;;25.30;14.90;;;;;;;12.37;59.37;99090.31;236471;1193;139256;-58
2021/11/07 09:37:55;;;;;;;24.80;14.80;;;;;;;11.14;56.87;99073.88;236341;1193;140562;-57
2021/11/07 09:43:21;;;;;;;21.80;12.90;;;;;;;10.94;57.24;99051.36;236236;1194;138771;-63
2021/11/07 09:48:36;;;;;;;96.50;56.60;;;;;;;10.92;57.13;99024.38;236451;1193;138922;-59
2021/11/07 09:53:42;;;;;;;14.90;9.30;;;;;;;10.91;57.25;99019.08;236224;1193;138776;-59
2021/11/07 09:58:47;;;;;;;15.00;9.40;;;;;;;10.85;57.06;99009.68;235975;1193;139041;-60
2021/11/07 10:03:51;;;;;;;13.80;8.70;;;;;;;10.80;56.85;98998.65;236637;1193;138873;-61
2021/11/07 10:08:56;;;;;;;11.90;7.00;;;;;;;10.77;56.71;98996.55;236543;1193;139287;-60
2021/11/07 10:14:14;;;;;;;13.30;8.00;;;;;;;10.76;56.36;99000.35;236531;1193;138589;-59
2021/11/07 10:19:35;;;;;;;13.00;7.70;;;;;;;10.75;56.05;98998.29;236446;1193;139883;-58
2021/11/07 10:24:39;;;;;;;13.40;8.60;;;;;;;10.73;56.19;99002.14;236239;1193;139676;-61
2021/11/07 10:29:48;;;;;;;15.30;8.80;;;;;;;10.77;56.31;98992.64;236545;1195;139377;-60
2021/11/07 10:40:45;;;;;;;42.40;27.30;;;;;;;10.89;56.10;98978.21;236432;1193;138883;-60
2021/11/07 10:56:17;;;;;;;10.70;6.80;;;;;;;10.94;56.02;98948.39;236401;1195;138746;-59
2021/11/07 11:01:24;;;;;;;8.50;5.50;;;;;;;11.04;56.02;98925.59;236480;1195;139571;-59
2021/11/07 11:06:30;;;;;;;9.50;5.30;;;;;;;11.18;56.10;98917.89;236506;1193;139438;-58
2021/11/07 11:38:12;;;;;;;10.00;5.70;;;;;;;11.94;54.94;98843.21;236761;1194;138890;-59
2021/11/07 11:43:19;;;;;;;7.20;4.80;;;;;;;11.93;54.72;98836.91;236611;1194;139038;-59
2021/11/07 11:48:58;;;;;;;9.60;4.80;;;;;;;11.94;54.54;98827.21;236690;1194;138362;-58
2021/11/07 12:00:21;;;;;;;4.30;2.50;;;;;;;11.97;54.37;98809.39;236828;1193;139273;-56
2021/11/07 12:10:29;;;;;;;3.60;2.20;;;;;;;11.99;54.13;98794.73;236643;1193;126073;-60
2021/11/07 12:15:49;;;;;;;4.50;2.30;;;;;;;12.04;54.03;98784.89;236729;1193;139542;-58
2021/11/07 12:20:56;;;;;;;4.80;2.60;;;;;;;12.09;53.90;98786.17;236829;1193;138351;-56
2021/11/07 12:26:25;;;;;;;3.40;2.30;;;;;;;12.07;53.46;98778.15;236659;1195;138360;-60
2021/11/07 12:31:30;;;;;;;4.60;2.50;;;;;;;12.04;53.37;98775.48;236658;1193;138941;-58
2021/11/07 12:42:10;;;;;;;3.00;2.20;;;;;;;11.99;53.30;98765.34;236821;1193;139156;-56
2021/11/07 12:47:14;;;;;;;7.80;3.50;;;;;;;11.99;53.19;98759.88;236926;1193;138722;-58
2021/11/07 12:52:18;;;;;;;6.60;3.90;;;;;;;12.15;54.45;98746.45;236851;1193;139098;-56
2021/11/07 12:57:22;;;;;;;3.40;2.60;;;;;;;12.34;53.66;98733.33;236731;1193;140161;-57
2021/11/07 13:02:29;;;;;;;5.40;2.70;;;;;;;12.28;52.88;98723.23;236843;1193;138623;-59
2021/11/07 13:07:49;;;;;;;4.70;2.50;;;;;;;12.21;52.65;98723.56;236892;1193;140084;-57
2021/11/07 13:12:59;;;;;;;2.70;2.10;;;;;;;12.19;52.40;98720.32;236708;1193;138518;-55
2021/11/07 13:34:09;;;;;;;3.70;2.60;;;;;;;12.14;52.14;98716.66;236817;1195;138498;-57
2021/11/07 13:39:25;;;;;;;3.30;2.10;;;;;;;12.20;51.85;98712.61;236664;1193;138232;-59
2021/11/07 13:44:35;;;;;;;4.20;2.50;;;;;;;12.25;51.61;98708.34;236568;1193;138680;-55
2021/11/07 13:49:52;;;;;;;3.90;2.30;;;;;;;12.25;51.34;98698.41;236825;1193;138936;-61
2021/11/07 13:54:55;;;;;;;9.10;5.00;;;;;;;12.26;50.96;98700.23;236567;1193;140700;-57
2021/11/07 14:00:05;;;;;;;4.50;2.40;;;;;;;12.30;51.18;98694.96;236325;1194;140014;-59
2021/11/07 14:05:13;;;;;;;7.20;3.00;;;;;;;12.25;50.83;98689.46;236652;1195;138674;-60
2021/11/07 14:10:18;;;;;;;5.10;2.90;;;;;;;12.17;50.55;98688.50;236792;1194;140192;-59
2021/11/07 14:15:30;;;;;;;15.60;13.80;;;;;;;12.07;50.73;98681.23;236861;1194;138835;-59
2021/11/07 14:20:56;;;;;;;30.10;10.90;;;;;;;12.02;50.87;98673.74;236801;1195;138612;-59
2021/11/07 14:26:17;;;;;;;6.20;3.10;;;;;;;11.97;50.39;98673.38;236519;1193;139176;-57
2021/11/07 14:31:24;;;;;;;7.40;3.40;;;;;;;11.88;50.85;98659.66;236863;1193;138977;-57
2021/11/07 14:36:39;;;;;;;7.10;3.20;;;;;;;11.81;50.55;98653.05;236283;1194;138237;-58
2021/11/07 14:41:53;;;;;;;6.70;3.40;;;;;;;11.75;50.59;98655.65;236868;1187;138427;-59
2021/11/07 14:47:31;;;;;;;5.60;3.50;;;;;;;11.72;50.74;98660.66;236846;1193;138016;-59
2021/11/07 15:03:18;;;;;;;6.10;3.80;;;;;;;11.64;50.87;98652.15;236462;1193;138794;-60
2021/11/07 15:08:36;;;;;;;8.80;3.90;;;;;;;11.62;50.91;98645.73;236700;1187;138712;-61
2021/11/07 15:24:15;;;;;;;8.30;4.10;;;;;;;11.55;50.83;98649.10;236680;1194;138606;-61
2021/11/07 15:29:22;;;;;;;7.00;3.80;;;;;;;11.53;50.72;98644.21;236820;1194;138418;-59
2021/11/07 15:34:29;;;;;;;7.00;3.70;;;;;;;11.52;50.78;98647.14;236883;1193;138615;-62
2021/11/07 15:39:33;;;;;;;8.50;4.40;;;;;;;11.49;50.72;98651.66;236642;1193;138806;-59
2021/11/07 15:44:49;;;;;;;35.00;22.10;;;;;;;11.60;51.40;98646.44;236524;1193;138597;-61
2021/11/07 15:50:06;;;;;;;11.60;4.90;;;;;;;11.92;51.14;98644.98;236178;1193;138845;-60
2021/11/07 15:55:16;;;;;;;7.40;4.50;;;;;;;11.85;50.50;98649.40;236461;1193;138416;-58
2021/11/07 16:05:33;;;;;;;8.50;5.00;;;;;;;11.60;50.24;98650.27;236856;1194;139065;-59
2021/11/07 16:20:52;;;;;;;10.00;5.90;;;;;;;11.36;50.82;98645.63;236367;1193;138947;-58
2021/11/07 16:25:56;;;;;;;9.10;6.30;;;;;;;11.28;50.65;98643.20;236849;1193;139413;-59
2021/11/07 16:31:05;;;;;;;11.60;6.40;;;;;;;11.21;50.81;98642.64;236548;1195;138705;-61
2021/11/07 16:36:14;;;;;;;13.10;7.90;;;;;;;11.16;50.83;98650.83;236647;1195;138731;-61
2021/11/07 16:46:32;;;;;;;13.70;7.70;;;;;;;11.09;50.89;98668.53;236856;1187;138695;-60
2021/11/07 16:51:48;;;;;;;59.80;42.70;;;;;;;11.09;51.56;98660.72;236437;1193;141332;-60
2021/11/07 16:56:52;;;;;;;16.10;10.30;;;;;;;11.26;51.88;98664.86;236798;1193;139227;-59
2021/11/07 17:07:03;;;;;;;13.30;7.90;;;;;;;11.24;50.93;98673.65;236825;1193;138417;-59
2021/11/07 17:12:14;;;;;;;14.70;8.20;;;;;;;11.13;51.41;98674.45;236835;1193;139858;-59
2021/11/07 17:17:22;;;;;;;13.80;7.10;;;;;;;11.06;51.12;98684.14;236754;1193;138845;-59
2021/11/07 17:27:59;;;;;;;11.30;6.50;;;;;;;10.94;51.09;98682.33;236873;1193;140522;-60
2021/11/07 17:33:07;;;;;;;10.30;5.60;;;;;;;10.90;50.81;98689.89;236424;1194;138740;-60
2021/11/07 17:38:31;;;;;;;8.70;5.40;;;;;;;10.85;50.92;98682.81;236500;1195;139584;-60
2021/11/07 17:59:24;;;;;;;129.60;88.00;;;;;;;10.88;49.73;98696.59;236754;1193;139112;-60
2021/11/07 18:04:28;;;;;;;9.40;5.30;;;;;;;11.00;49.74;98699.14;236250;1193;138771;-62
2021/11/07 18:09:33;;;;;;;6.80;4.20;;;;;;;11.00;49.37;98694.19;236403;1193;138604;-60
2021/11/07 18:14:41;;;;;;;8.30;4.80;;;;;;;10.96;49.24;98697.50;236600;1194;139100;-61
2021/11/07 18:19:45;;;;;;;9.30;5.00;;;;;;;10.92;49.05;98700.95;236474;1194;138564;-59
2021/11/07 18:24:56;;;;;;;8.10;4.30;;;;;;;10.86;48.87;98702.55;236181;1194;138255;-61
2021/11/07 18:30:06;;;;;;;8.50;5.00;;;;;;;10.84;48.62;98715.17;236119;1193;139030;-60
2021/11/07 18:35:14;;;;;;;7.80;5.00;;;;;;;10.80;48.94;98715.61;236739;1193;138496;-61
2021/11/07 18:40:19;;;;;;;8.90;4.50;;;;;;;10.77;48.85;98723.45;236354;1193;139285;-61
2021/11/07 18:45:24;;;;;;;9.20;5.60;;;;;;;10.74;48.68;98734.98;236369;1195;139466;-61
2021/11/07 18:50:27;;;;;;;11.50;5.10;;;;;;;10.75;48.66;98739.92;236270;1195;139351;-60
2021/11/07 18:55:34;;;;;;;10.30;5.60;;;;;;;10.73;48.57;98737.52;236425;1195;138435;-59
2021/11/07 19:00:39;;;;;;;9.00;5.10;;;;;;;10.74;48.57;98736.09;236697;1193;139041;-60
2021/11/07 19:05:42;;;;;;;11.70;5.80;;;;;;;10.73;48.59;98734.40;236455;1194;140190;-60
2021/11/07 19:10:46;;;;;;;10.00;5.50;;;;;;;10.72;48.79;98734.08;236655;1193;138326;-60
2021/11/07 19:15:50;;;;;;;12.20;5.70;;;;;;;10.72;48.85;98731.39;236274;1193;138944;-59
2021/11/07 19:20:55;;;;;;;9.40;4.90;;;;;;;10.71;48.74;98736.30;236516;1193;138974;-60
2021/11/07 19:25:58;;;;;;;10.50;6.10;;;;;;;10.69;48.78;98739.59;236548;1193;138255;-63
2021/11/07 19:31:02;;;;;;;8.80;5.20;;;;;;;10.66;48.76;98744.60;236636;1186;138546;-63
2021/11/07 19:36:06;;;;;;;9.20;5.20;;;;;;;10.65;49.04;98748.70;235876;1193;138128;-60
2021/11/07 19:41:15;;;;;;;12.20;5.20;;;;;;;10.66;48.87;98756.11;236591;1193;138707;-58
2021/11/07 19:46:19;;;;;;;11.20;5.50;;;;;;;10.65;49.06;98760.11;236420;1193;138460;-61
2021/11/07 19:51:23;;;;;;;9.20;5.50;;;;;;;10.64;49.22;98757.67;236546;1194;138889;-59
2021/11/07 19:56:26;;;;;;;12.60;7.20;;;;;;;10.64;49.21;98765.27;236619;1193;141284;-61
2021/11/07 20:06:54;;;;;;;11.50;5.90;;;;;;;10.55;49.99;98781.87;236481;1194;139514;-60
2021/11/07 20:12:02;;;;;;;9.30;5.80;;;;;;;10.51;50.34;98781.65;236188;1193;138487;-61
2021/11/07 20:17:11;;;;;;;10.60;6.40;;;;;;;10.44;50.63;98783.65;236653;1193;138963;-60
2021/11/07 20:22:15;;;;;;;9.50;5.90;;;;;;;10.37;51.03;98791.38;236297;1194;139061;-58
2021/11/07 20:27:26;;;;;;;9.70;6.40;;;;;;;10.29;51.19;98800.41;236617;1193;138825;-61
2021/11/07 20:32:30;;;;;;;12.90;6.90;;;;;;;10.18;51.91;98807.11;236569;1193;137960;-62
2021/11/07 20:37:36;;;;;;;9.10;6.60;;;;;;;10.09;52.69;98801.99;236593;1195;138934;-61
2021/11/07 20:42:52;;;;;;;10.30;7.00;;;;;;;9.96;53.08;98810.97;236217;1193;138711;-60
2021/11/07 20:48:00;;;;;;;10.60;6.50;;;;;;;9.80;53.66;98808.68;236569;1193;139110;-59
2021/11/07 20:53:12;;;;;;;11.90;7.00;;;;;;;9.68;54.39;98813.43;236650;1193;138949;-62
2021/11/07 20:59:12;;;;;;;11.40;7.70;;;;;;;9.56;55.16;98815.95;236361;1193;138682;-59
2021/11/07 21:04:03;;;;;;;11.70;7.50;;;;;;;9.50;55.41;98826.11;236334;1194;138529;-59
2021/11/07 21:09:48;;;;;;;12.20;7.50;;;;;;;9.44;56.01;98823.47;236603;1193;138711;-59
2021/11/07 21:30:47;;;;;;;11.00;6.90;;;;;;;9.05;57.79;98838.36;236297;1194;139098;-58
2021/11/07 21:36:12;;;;;;;10.90;6.70;;;;;;;9.03;57.99;98831.95;236397;1193;138579;-59
2021/11/07 21:46:20;;;;;;;10.20;6.50;;;;;;;9.00;58.52;98838.98;236347;1194;138514;-60
2021/11/07 21:51:23;;;;;;;11.50;7.10;;;;;;;9.05;58.74;98840.98;236164;1194;138432;-60
2021/11/07 21:56:27;;;;;;;14.10;7.00;;;;;;;9.05;58.69;98841.73;236277;1195;138368;-62
2021/11/07 22:01:33;;;;;;;10.10;6.60;;;;;;;9.03;58.75;98839.34;235978;1193;138570;-60
2021/11/07 22:06:36;;;;;;;9.30;6.80;;;;;;;9.03;59.00;98845.89;236602;1193;138823;-59
2021/11/07 22:11:41;;;;;;;9.30;6.10;;;;;;;9.07;59.07;98840.17;236299;1193;138928;-58
2021/11/07 22:16:53;;;;;;;8.60;5.60;;;;;;;9.12;59.15;98844.33;236510;1194;139359;-60
2021/11/07 22:27:01;;;;;;;8.40;5.80;;;;;;;9.11;59.22;98837.63;236520;1193;138018;-60
2021/11/07 22:37:08;;;;;;;9.30;6.40;;;;;;;9.08;59.55;98842.77;236215;1193;140754;-59
2021/11/07 22:42:20;;;;;;;9.50;6.40;;;;;;;9.08;59.63;98847.91;236093;1195;139008;-63
2021/11/07 22:47:39;;;;;;;8.70;6.20;;;;;;;9.04;59.57;98846.90;236354;1195;138393;-61
2021/11/07 22:53:03;;;;;;;10.20;6.50;;;;;;;9.02;59.81;98848.26;236370;1195;139139;-60
2021/11/07 23:14:00;;;;;;;8.40;6.00;;;;;;;9.16;60.12;98846.52;236364;1194;139247;-60
2021/11/07 23:19:09;;;;;;;8.90;6.10;;;;;;;9.14;60.08;98841.16;236550;1193;138574;-59
2021/11/07 23:24:12;;;;;;;9.70;6.20;;;;;;;9.10;59.97;98835.04;236431;1194;138447;-58
2021/11/07 23:29:19;;;;;;;10.50;6.40;;;;;;;9.06;59.85;98837.94;236403;1195;138053;-58
2021/11/07 23:34:22;;;;;;;10.00;6.70;;;;;;;9.01;60.05;98838.95;236070;1194;138919;-56
2021/11/07 23:39:27;;;;;;;10.30;6.60;;;;;;;8.95;59.95;98838.23;236540;1193;138732;-57
2021/11/07 23:44:30;;;;;;;10.60;6.20;;;;;;;8.92;60.03;98840.71;236156;1195;139277;-59
2021/11/07 23:49:33;;;;;;;10.40;7.30;;;;;;;8.91;60.16;98840.79;236323;1195;138550;-59
2021/11/07 23:54:39;;;;;;;11.10;6.80;;;;;;;8.89;60.14;98842.46;236268;1193;138795;-60
2021/11/07 23:59:43;;;;;;;12.20;7.10;;;;;;;8.86;60.11;98843.02;236479;1193;138832;-61
